Time;durP1;ratioP1;P1;durP2;ratioP2;P2;SDS_P1;SDS_P2;PMS_P1;PMS_P2;Temp;Humidity;BMP_temperature;BMP_pressure;BME280_temperature;BME280_humidity;BME280_pressure;Samples;Min_cycle;Max_cycle;Signal;HPM_P1;HPM_P2
2023/08/14 00:01:19;;;;;;;7.82;2.80;;;;;;;;;;5070329;27;20408;-70
2023/08/14 00:03:46;;;;;;;3.67;2.75;;;;;;;;;;5029987;28;20041;-69
2023/08/14 00:06:12;;;;;;;7.75;3.10;;;;;;;;;;5029534;28;20535;-69
2023/08/14 00:08:38;;;;;;;6.05;3.45;;;;;;;;;;5030066;28;20485;-70
2023/08/14 00:11:04;;;;;;;6.25;3.55;;;;;;;;;;5029222;28;20047;-70
2023/08/14 00:13:30;;;;;;;7.10;3.63;;;;;;;;;;5021397;28;20126;-70
2023/08/14 00:15:56;;;;;;;6.30;3.22;;;;;;;;;;5010446;28;20088;-70
2023/08/14 00:18:22;;;;;;;6.78;3.25;;;;;;;;;;5010938;28;20082;-69
2023/08/14 00:20:48;;;;;;;7.22;3.58;;;;;;;;;;5016441;28;20144;-70
2023/08/14 00:23:14;;;;;;;4.85;3.40;;;;;;;;;;5021362;28;20098;-69
2023/08/14 00:25:40;;;;;;;7.18;2.83;;;;;;;;;;5009714;28;20042;-69
2023/08/14 00:28:06;;;;;;;7.85;4.13;;;;;;;;;;5020991;28;20133;-69
2023/08/14 00:30:32;;;;;;;8.32;3.15;;;;;;;;;;5003553;28;20187;-69
2023/08/14 00:32:58;;;;;;;7.30;3.30;;;;;;;;;;5021563;28;20050;-69
2023/08/14 00:35:24;;;;;;;7.10;3.22;;;;;;;;;;5029935;28;20089;-69
2023/08/14 00:37:50;;;;;;;6.32;3.72;;;;;;;;;;5025767;28;20059;-70
2023/08/14 00:40:17;;;;;;;7.63;3.70;;;;;;;;;;5024604;28;20054;-69
2023/08/14 00:42:45;;;;;;;8.88;4.00;;;;;;;;;;4998790;28;20128;-70
2023/08/14 00:45:12;;;;;;;7.80;3.90;;;;;;;;;;5020497;28;20042;-70
2023/08/14 00:47:38;;;;;;;6.75;3.55;;;;;;;;;;5018375;28;20481;-70
2023/08/14 00:50:05;;;;;;;6.60;3.60;;;;;;;;;;5027091;28;20034;-70
2023/08/14 00:52:32;;;;;;;9.95;3.75;;;;;;;;;;4995213;28;20058;-69
2023/08/14 00:55:02;;;;;;;5.95;3.90;;;;;;;;;;5018267;28;20045;-70
2023/08/14 00:57:29;;;;;;;10.38;5.15;;;;;;;;;;5005485;28;20054;-70
2023/08/14 00:59:56;;;;;;;10.48;4.40;;;;;;;;;;5009115;28;20046;-70
2023/08/14 01:02:23;;;;;;;9.25;4.88;;;;;;;;;;5014666;28;20041;-70
2023/08/14 01:04:49;;;;;;;7.38;4.72;;;;;;;;;;5003172;28;20092;-70
2023/08/14 01:07:16;;;;;;;11.88;4.88;;;;;;;;;;4996190;28;20103;-69
2023/08/14 01:09:42;;;;;;;9.18;4.20;;;;;;;;;;5008874;28;20095;-70
2023/08/14 01:12:08;;;;;;;6.88;4.10;;;;;;;;;;5025729;28;21083;-69
2023/08/14 01:14:34;;;;;;;8.63;4.78;;;;;;;;;;5010055;28;20033;-70
2023/08/14 01:17:02;;;;;;;10.10;4.97;;;;;;;;;;5008150;28;20049;-70
2023/08/14 01:19:37;;;;;;;7.90;4.25;;;;;;;;;;5028119;28;20480;-69
2023/08/14 01:22:10;;;;;;;9.30;4.65;;;;;;;;;;4994503;28;20842;-69
2023/08/14 01:24:36;;;;;;;10.80;4.97;;;;;;;;;;5022572;28;20106;-70
2023/08/14 01:27:02;;;;;;;7.38;4.70;;;;;;;;;;5010171;28;20049;-69
2023/08/14 01:29:31;;;;;;;9.70;4.97;;;;;;;;;;5004833;28;20046;-69
2023/08/14 01:31:57;;;;;;;10.65;4.88;;;;;;;;;;5018146;28;20056;-70
2023/08/14 01:34:24;;;;;;;10.77;4.90;;;;;;;;;;5028095;28;20128;-69
2023/08/14 01:37:00;;;;;;;7.32;4.75;;;;;;;;;;5009413;28;20053;-69
2023/08/14 01:39:29;;;;;;;7.90;5.35;;;;;;;;;;5029452;28;20076;-69
2023/08/14 01:42:03;;;;;;;7.70;4.90;;;;;;;;;;5017600;28;20087;-70
2023/08/14 01:44:31;;;;;;;7.40;4.70;;;;;;;;;;5007761;28;20042;-69
2023/08/14 01:46:58;;;;;;;10.48;5.18;;;;;;;;;;5008801;28;20084;-70
2023/08/14 01:49:25;;;;;;;11.82;4.55;;;;;;;;;;5010240;28;20140;-69
2023/08/14 01:51:52;;;;;;;9.93;4.63;;;;;;;;;;5008987;28;20053;-69
2023/08/14 01:54:19;;;;;;;8.98;4.35;;;;;;;;;;5025377;28;20071;-69
2023/08/14 01:56:45;;;;;;;8.30;4.68;;;;;;;;;;5009083;28;20057;-69
2023/08/14 01:59:11;;;;;;;7.72;4.60;;;;;;;;;;5009030;28;20053;-69
2023/08/14 02:01:37;;;;;;;9.05;5.25;;;;;;;;;;5017700;28;20093;-69
2023/08/14 02:04:04;;;;;;;8.77;4.75;;;;;;;;;;5025031;28;20101;-69
2023/08/14 02:06:31;;;;;;;9.77;4.80;;;;;;;;;;5001686;28;20133;-69
2023/08/14 02:08:57;;;;;;;8.45;4.68;;;;;;;;;;5015376;28;20092;-69
2023/08/14 02:11:23;;;;;;;12.60;4.47;;;;;;;;;;5013407;28;20041;-69
2023/08/14 02:13:49;;;;;;;8.15;4.45;;;;;;;;;;5017994;28;20099;-70
2023/08/14 02:16:15;;;;;;;8.40;4.80;;;;;;;;;;5019415;28;20094;-69
2023/08/14 02:18:41;;;;;;;9.73;5.22;;;;;;;;;;5024729;28;20505;-69
2023/08/14 02:21:07;;;;;;;12.60;4.80;;;;;;;;;;5121209;28;20555;-69
2023/08/14 02:23:33;;;;;;;8.82;4.65;;;;;;;;;;5077274;28;20080;-70
2023/08/14 02:26:00;;;;;;;10.43;4.63;;;;;;;;;;5008292;28;20073;-69
2023/08/14 02:28:26;;;;;;;10.23;4.70;;;;;;;;;;5009591;28;20139;-69
2023/08/14 02:30:52;;;;;;;11.00;4.82;;;;;;;;;;5008226;28;20061;-69
2023/08/14 02:33:18;;;;;;;8.40;4.43;;;;;;;;;;5089084;28;20047;-69
2023/08/14 02:35:44;;;;;;;10.50;5.15;;;;;;;;;;5093593;28;20406;-69
2023/08/14 02:38:10;;;;;;;8.35;4.45;;;;;;;;;;5111816;28;20047;-69
2023/08/14 02:40:38;;;;;;;11.77;4.60;;;;;;;;;;5072843;28;20042;-70
2023/08/14 02:43:04;;;;;;;10.85;4.50;;;;;;;;;;5028929;28;20037;-69
2023/08/14 02:45:30;;;;;;;10.43;4.63;;;;;;;;;;5009704;28;20069;-69
2023/08/14 02:47:56;;;;;;;10.82;4.70;;;;;;;;;;5074663;27;20061;-69
2023/08/14 02:50:22;;;;;;;9.77;4.57;;;;;;;;;;5084792;27;20098;-69
2023/08/14 02:52:48;;;;;;;12.23;4.30;;;;;;;;;;5101565;27;20570;-69
2023/08/14 02:55:15;;;;;;;7.47;3.88;;;;;;;;;;5110329;27;20078;-69
2023/08/14 02:57:41;;;;;;;8.30;4.13;;;;;;;;;;5031250;28;20103;-70
2023/08/14 03:00:07;;;;;;;9.50;4.38;;;;;;;;;;5031416;28;20042;-69
2023/08/14 03:02:34;;;;;;;8.18;4.28;;;;;;;;;;4998820;28;20057;-70
2023/08/14 03:05:00;;;;;;;7.72;4.18;;;;;;;;;;5117950;27;20043;-69
2023/08/14 03:07:26;;;;;;;7.70;4.07;;;;;;;;;;5135168;27;20047;-69
2023/08/14 03:09:52;;;;;;;8.07;3.90;;;;;;;;;;5079313;27;20042;-69
2023/08/14 03:12:18;;;;;;;8.80;4.30;;;;;;;;;;5013011;28;20113;-69
2023/08/14 03:14:44;;;;;;;7.68;4.80;;;;;;;;;;5012275;28;20096;-69
2023/08/14 03:17:11;;;;;;;6.43;4.25;;;;;;;;;;5013205;28;20473;-69
2023/08/14 03:19:37;;;;;;;7.57;4.43;;;;;;;;;;5012489;28;20524;-69
2023/08/14 03:22:03;;;;;;;7.78;4.28;;;;;;;;;;4996722;28;20042;-69
2023/08/14 03:24:29;;;;;;;8.18;4.25;;;;;;;;;;5018703;28;20042;-69
2023/08/14 03:26:55;;;;;;;8.68;4.38;;;;;;;;;;5020542;28;20045;-70
2023/08/14 03:29:22;;;;;;;9.77;4.38;;;;;;;;;;5030719;28;20046;-69
2023/08/14 03:31:48;;;;;;;9.18;4.80;;;;;;;;;;5021937;28;20099;-69
2023/08/14 03:34:14;;;;;;;7.93;4.15;;;;;;;;;;5017023;28;20033;-69
2023/08/14 03:36:40;;;;;;;8.05;4.57;;;;;;;;;;5022408;28;20507;-69
2023/08/14 03:39:06;;;;;;;8.82;4.75;;;;;;;;;;5014014;28;20044;-69
2023/08/14 03:41:32;;;;;;;5.95;3.80;;;;;;;;;;5006862;28;20038;-69
2023/08/14 03:43:58;;;;;;;6.43;4.38;;;;;;;;;;4995961;28;20053;-69
2023/08/14 03:46:24;;;;;;;6.63;4.20;;;;;;;;;;5020251;28;20061;-69
2023/08/14 03:48:50;;;;;;;9.10;4.47;;;;;;;;;;5019765;28;20496;-69
2023/08/14 03:51:16;;;;;;;8.32;4.22;;;;;;;;;;5015725;28;20041;-70
2023/08/14 03:53:42;;;;;;;5.53;4.03;;;;;;;;;;5057630;27;20056;-69
2023/08/14 03:56:08;;;;;;;9.68;4.28;;;;;;;;;;5002893;28;20050;-69
2023/08/14 03:58:34;;;;;;;6.75;4.13;;;;;;;;;;4992309;28;20049;-69
2023/08/14 04:01:00;;;;;;;7.95;4.47;;;;;;;;;;5016042;28;20038;-69
2023/08/14 04:03:26;;;;;;;6.68;4.32;;;;;;;;;;5016730;28;20414;-69
2023/08/14 04:05:58;;;;;;;9.60;4.65;;;;;;;;;;5015758;28;20054;-69
2023/08/14 04:08:24;;;;;;;7.65;4.43;;;;;;;;;;5021924;28;20137;-69
2023/08/14 04:10:55;;;;;;;6.72;4.60;;;;;;;;;;5003205;28;20042;-69
2023/08/14 04:13:21;;;;;;;7.10;4.78;;;;;;;;;;4996924;28;20053;-69
2023/08/14 04:15:47;;;;;;;8.05;4.70;;;;;;;;;;5023291;28;20099;-69
2023/08/14 04:18:13;;;;;;;6.07;4.50;;;;;;;;;;5070501;27;20134;-69
2023/08/14 04:20:39;;;;;;;7.47;4.55;;;;;;;;;;5033334;27;20049;-69
2023/08/14 04:23:06;;;;;;;9.88;4.35;;;;;;;;;;5096207;27;20521;-69
2023/08/14 04:25:32;;;;;;;8.40;4.78;;;;;;;;;;5031332;28;20098;-69
2023/08/14 04:27:58;;;;;;;7.43;4.47;;;;;;;;;;5029201;28;20051;-69
2023/08/14 04:30:24;;;;;;;9.25;5.10;;;;;;;;;;5030109;28;20132;-69
2023/08/14 04:32:50;;;;;;;7.75;4.63;;;;;;;;;;5015450;28;20050;-70
2023/08/14 04:35:16;;;;;;;10.15;4.90;;;;;;;;;;5015731;28;20046;-69
2023/08/14 04:37:42;;;;;;;8.90;4.63;;;;;;;;;;5012700;28;20106;-68
2023/08/14 04:40:08;;;;;;;8.70;4.50;;;;;;;;;;5020374;28;20038;-69
2023/08/14 04:42:35;;;;;;;7.85;5.10;;;;;;;;;;5018363;28;20052;-70
2023/08/14 04:45:01;;;;;;;7.32;4.97;;;;;;;;;;5012140;28;20089;-69
2023/08/14 04:47:27;;;;;;;12.43;5.13;;;;;;;;;;4996251;28;20140;-69
2023/08/14 04:49:53;;;;;;;7.82;5.32;;;;;;;;;;4991950;28;20045;-69
2023/08/14 04:52:20;;;;;;;8.48;5.38;;;;;;;;;;5007184;28;20068;-69
2023/08/14 04:54:46;;;;;;;8.52;5.80;;;;;;;;;;5023098;28;20046;-69
2023/08/14 04:57:12;;;;;;;12.40;5.72;;;;;;;;;;5009437;28;20058;-69
2023/08/14 04:59:38;;;;;;;12.13;5.35;;;;;;;;;;4991970;28;20053;-69
2023/08/14 05:02:04;;;;;;;10.30;5.53;;;;;;;;;;4991799;28;20060;-69
2023/08/14 05:04:30;;;;;;;7.38;5.30;;;;;;;;;;5026348;28;20048;-69
2023/08/14 05:06:56;;;;;;;10.20;5.35;;;;;;;;;;5003975;28;20063;-69
2023/08/14 05:09:22;;;;;;;11.68;5.70;;;;;;;;;;5009865;28;20042;-69
2023/08/14 05:11:48;;;;;;;9.10;5.50;;;;;;;;;;5009335;28;20124;-69
2023/08/14 05:14:18;;;;;;;9.80;5.38;;;;;;;;;;5023336;28;20128;-69
2023/08/14 05:16:45;;;;;;;9.10;5.68;;;;;;;;;;5020930;28;20577;-69
2023/08/14 05:19:11;;;;;;;11.40;5.80;;;;;;;;;;4992170;28;20137;-69
2023/08/14 05:21:37;;;;;;;8.45;5.22;;;;;;;;;;5008729;28;20111;-69
2023/08/14 05:24:03;;;;;;;10.18;5.57;;;;;;;;;;4992200;28;20042;-69
2023/08/14 05:26:29;;;;;;;9.40;5.32;;;;;;;;;;5019269;28;20051;-69
2023/08/14 05:28:55;;;;;;;7.32;5.38;;;;;;;;;;5026901;28;20049;-69
2023/08/14 05:31:21;;;;;;;8.10;5.40;;;;;;;;;;5026181;28;20134;-69
2023/08/14 05:33:47;;;;;;;10.02;5.70;;;;;;;;;;5029195;28;20110;-69
2023/08/14 05:36:13;;;;;;;7.40;4.85;;;;;;;;;;5010484;28;20045;-69
2023/08/14 05:38:39;;;;;;;9.40;5.35;;;;;;;;;;5027935;28;20566;-69
2023/08/14 05:41:05;;;;;;;9.82;5.05;;;;;;;;;;5011025;28;20512;-69
2023/08/14 05:43:31;;;;;;;6.85;4.47;;;;;;;;;;5027519;28;20211;-69
2023/08/14 05:45:57;;;;;;;7.57;3.67;;;;;;;;;;5001374;28;20103;-69
2023/08/14 05:48:23;;;;;;;6.43;3.47;;;;;;;;;;4991617;28;20444;-69
2023/08/14 05:50:52;;;;;;;8.00;4.20;;;;;;;;;;5008065;28;20046;-68
2023/08/14 05:53:18;;;;;;;7.00;3.88;;;;;;;;;;5027600;28;20057;-69
2023/08/14 05:55:44;;;;;;;8.40;3.67;;;;;;;;;;5028401;28;20396;-69
2023/08/14 05:58:10;;;;;;;9.20;4.07;;;;;;;;;;5009350;28;20540;-69
2023/08/14 06:00:37;;;;;;;10.13;3.78;;;;;;;;;;5027600;28;20234;-69
2023/08/14 06:03:07;;;;;;;10.02;3.97;;;;;;;;;;4991007;28;20057;-68
2023/08/14 06:05:33;;;;;;;6.05;3.60;;;;;;;;;;5008620;28;20065;-69
2023/08/14 06:07:59;;;;;;;9.27;3.58;;;;;;;;;;5024281;28;20472;-68
2023/08/14 06:10:25;;;;;;;8.40;3.58;;;;;;;;;;5028019;28;20453;-69
2023/08/14 06:12:52;;;;;;;11.82;3.63;;;;;;;;;;5028139;28;20049;-69
2023/08/14 06:15:21;;;;;;;10.98;4.00;;;;;;;;;;5010110;28;20057;-69
2023/08/14 06:17:48;;;;;;;11.07;3.92;;;;;;;;;;5026269;28;20085;-69
2023/08/14 06:20:14;;;;;;;10.15;4.32;;;;;;;;;;5012279;28;20407;-68
2023/08/14 06:22:45;;;;;;;8.75;4.20;;;;;;;;;;5023089;28;20373;-68
2023/08/14 06:25:12;;;;;;;8.35;3.50;;;;;;;;;;5029163;28;20068;-68
2023/08/14 06:27:38;;;;;;;7.05;3.38;;;;;;;;;;5029583;28;20485;-68
2023/08/14 06:30:05;;;;;;;4.90;3.15;;;;;;;;;;5031955;28;20053;-68
2023/08/14 06:32:31;;;;;;;7.70;2.60;;;;;;;;;;5005198;28;20054;-68
2023/08/14 06:34:57;;;;;;;5.90;2.97;;;;;;;;;;5025368;28;20049;-68
2023/08/14 06:37:23;;;;;;;4.18;2.88;;;;;;;;;;5014207;28;20050;-68
2023/08/14 06:39:49;;;;;;;5.05;2.72;;;;;;;;;;5012691;28;20042;-68
2023/08/14 06:42:15;;;;;;;8.88;3.47;;;;;;;;;;5005146;28;20049;-68
2023/08/14 06:44:41;;;;;;;9.55;2.50;;;;;;;;;;5011858;28;20050;-68
2023/08/14 06:47:07;;;;;;;6.20;2.80;;;;;;;;;;5010983;28;20159;-68
2023/08/14 06:49:33;;;;;;;3.15;2.25;;;;;;;;;;5017605;28;20466;-69
2023/08/14 06:51:59;;;;;;;6.15;2.33;;;;;;;;;;5015094;28;20146;-68
2023/08/14 06:54:25;;;;;;;4.90;2.42;;;;;;;;;;5011016;28;20045;-68
2023/08/14 06:56:51;;;;;;;5.35;2.70;;;;;;;;;;5011436;28;20042;-68
2023/08/14 06:59:17;;;;;;;5.55;2.72;;;;;;;;;;5028975;28;20083;-68
2023/08/14 07:01:43;;;;;;;6.65;2.65;;;;;;;;;;5030986;28;20045;-69
2023/08/14 07:04:09;;;;;;;3.95;2.38;;;;;;;;;;5031307;28;20048;-68
2023/08/14 07:06:35;;;;;;;3.90;2.35;;;;;;;;;;5003809;28;20126;-68
2023/08/14 07:09:01;;;;;;;5.93;2.30;;;;;;;;;;4993940;28;20124;-68
2023/08/14 07:11:27;;;;;;;5.00;2.60;;;;;;;;;;4993789;28;20042;-68
2023/08/14 07:13:54;;;;;;;3.38;2.30;;;;;;;;;;5002749;28;20056;-68
2023/08/14 07:16:20;;;;;;;3.65;2.30;;;;;;;;;;5029671;28;20098;-68
2023/08/14 07:18:46;;;;;;;4.85;2.45;;;;;;;;;;5031191;28;20124;-68
2023/08/14 07:21:13;;;;;;;4.43;2.47;;;;;;;;;;5029220;28;20128;-69
2023/08/14 07:23:39;;;;;;;4.35;2.53;;;;;;;;;;5029818;28;20361;-69
2023/08/14 07:26:11;;;;;;;5.47;2.47;;;;;;;;;;5012993;28;20049;-69
2023/08/14 07:28:38;;;;;;;5.07;2.47;;;;;;;;;;5029966;28;20057;-69
2023/08/14 07:31:04;;;;;;;3.45;2.20;;;;;;;;;;5018445;28;20308;-69
2023/08/14 07:33:30;;;;;;;5.38;2.13;;;;;;;;;;5031043;28;20067;-69
2023/08/14 07:35:57;;;;;;;5.88;2.30;;;;;;;;;;5011970;28;20249;-69
2023/08/14 07:38:23;;;;;;;6.47;2.70;;;;;;;;;;5030234;28;20500;-69
2023/08/14 07:40:49;;;;;;;4.65;2.42;;;;;;;;;;5002485;28;20050;-69
2023/08/14 07:43:15;;;;;;;5.78;2.90;;;;;;;;;;5010576;28;20071;-69
2023/08/14 07:45:42;;;;;;;4.43;2.00;;;;;;;;;;4993252;28;20053;-69
2023/08/14 07:48:08;;;;;;;5.53;2.72;;;;;;;;;;5004628;28;20053;-69
2023/08/14 07:50:34;;;;;;;4.35;2.30;;;;;;;;;;5029797;28;20077;-69
2023/08/14 07:53:01;;;;;;;5.57;2.42;;;;;;;;;;5030951;28;20463;-69
2023/08/14 07:55:27;;;;;;;3.38;2.28;;;;;;;;;;5029341;28;20049;-69
2023/08/14 07:57:53;;;;;;;2.97;2.28;;;;;;;;;;5011953;28;20056;-69
2023/08/14 08:00:19;;;;;;;6.28;3.00;;;;;;;;;;5010945;28;20050;-69
2023/08/14 08:02:45;;;;;;;2.85;2.13;;;;;;;;;;5012948;28;20081;-70
2023/08/14 08:05:11;;;;;;;3.50;2.03;;;;;;;;;;5012547;28;20124;-69
2023/08/14 08:07:37;;;;;;;5.72;2.00;;;;;;;;;;5012397;28;20057;-69
2023/08/14 08:10:04;;;;;;;4.40;2.05;;;;;;;;;;5013284;28;20970;-69
2023/08/14 08:12:30;;;;;;;7.93;2.47;;;;;;;;;;5029354;28;20045;-69
2023/08/14 08:14:56;;;;;;;3.13;2.00;;;;;;;;;;5030352;28;20181;-70
2023/08/14 08:17:22;;;;;;;4.57;2.40;;;;;;;;;;5028456;28;20456;-69
2023/08/14 08:19:48;;;;;;;4.22;2.10;;;;;;;;;;5029821;28;20409;-69
2023/08/14 08:22:14;;;;;;;4.20;2.40;;;;;;;;;;5012654;28;20049;-69
2023/08/14 08:24:40;;;;;;;3.08;1.90;;;;;;;;;;5010880;28;20049;-69
2023/08/14 08:27:06;;;;;;;3.60;2.30;;;;;;;;;;5025369;28;20045;-69
2023/08/14 08:29:32;;;;;;;5.95;2.45;;;;;;;;;;5010699;28;20042;-69
2023/08/14 08:31:58;;;;;;;3.65;2.08;;;;;;;;;;4992152;28;20535;-69
2023/08/14 08:34:24;;;;;;;4.80;2.15;;;;;;;;;;5007866;28;20042;-69
2023/08/14 08:36:50;;;;;;;4.45;2.03;;;;;;;;;;5028597;28;20045;-69
2023/08/14 08:39:16;;;;;;;4.53;2.10;;;;;;;;;;5010963;28;20096;-69
2023/08/14 08:41:44;;;;;;;5.13;2.25;;;;;;;;;;5025382;28;20034;-69
2023/08/14 08:44:12;;;;;;;6.43;2.20;;;;;;;;;;5014190;28;20074;-69
2023/08/14 08:46:42;;;;;;;4.57;2.33;;;;;;;;;;5015821;28;20095;-69
2023/08/14 08:49:09;;;;;;;2.50;2.00;;;;;;;;;;4993011;28;20467;-69
2023/08/14 08:51:35;;;;;;;5.82;2.47;;;;;;;;;;4992146;28;20378;-69
2023/08/14 08:54:02;;;;;;;3.97;2.30;;;;;;;;;;5027823;28;20053;-69
2023/08/14 08:56:28;;;;;;;5.20;2.35;;;;;;;;;;5002721;28;20049;-69
2023/08/14 08:58:54;;;;;;;4.00;2.30;;;;;;;;;;5008769;28;20057;-69
2023/08/14 09:01:20;;;;;;;3.80;2.15;;;;;;;;;;4996039;28;20045;-69
2023/08/14 09:03:47;;;;;;;3.60;2.45;;;;;;;;;;5028247;28;20090;-69
2023/08/14 09:06:13;;;;;;;4.30;2.50;;;;;;;;;;5010739;28;20199;-69
2023/08/14 09:08:40;;;;;;;3.95;2.25;;;;;;;;;;5028513;28;20064;-69
2023/08/14 09:11:06;;;;;;;6.47;2.40;;;;;;;;;;5011549;28;20481;-69
2023/08/14 09:13:32;;;;;;;4.60;2.40;;;;;;;;;;5028528;28;20046;-69
2023/08/14 09:15:59;;;;;;;4.22;2.45;;;;;;;;;;5011860;28;20505;-69
2023/08/14 09:18:25;;;;;;;6.20;2.30;;;;;;;;;;5024138;28;20084;-69
2023/08/14 09:20:51;;;;;;;4.70;2.60;;;;;;;;;;5028441;28;20072;-69
2023/08/14 09:23:18;;;;;;;6.38;2.80;;;;;;;;;;5011404;28;20456;-69
2023/08/14 09:25:47;;;;;;;4.40;2.47;;;;;;;;;;5011350;28;20088;-69
2023/08/14 09:28:13;;;;;;;4.18;2.67;;;;;;;;;;5007792;28;20088;-69
2023/08/14 09:30:41;;;;;;;3.60;2.20;;;;;;;;;;5011402;28;20049;-69
2023/08/14 09:33:08;;;;;;;4.25;2.55;;;;;;;;;;5009664;28;20519;-68
2023/08/14 09:35:34;;;;;;;3.95;2.35;;;;;;;;;;5020415;28;20047;-69
2023/08/14 09:38:00;;;;;;;8.63;2.40;;;;;;;;;;5029236;28;20045;-69
2023/08/14 09:40:26;;;;;;;3.05;2.58;;;;;;;;;;5029384;28;20046;-69
2023/08/14 09:42:53;;;;;;;5.50;2.20;;;;;;;;;;5007267;28;20129;-69
2023/08/14 09:45:23;;;;;;;4.72;2.30;;;;;;;;;;5009660;28;20045;-69
2023/08/14 09:47:50;;;;;;;5.00;2.53;;;;;;;;;;4991782;28;20081;-69
2023/08/14 09:50:17;;;;;;;4.53;2.80;;;;;;;;;;4990663;28;20057;-69
2023/08/14 09:52:44;;;;;;;4.68;2.17;;;;;;;;;;5008970;28;20076;-69
2023/08/14 09:55:11;;;;;;;6.20;2.30;;;;;;;;;;5031561;28;20122;-69
2023/08/14 09:57:37;;;;;;;4.97;2.42;;;;;;;;;;5031929;28;20041;-69
2023/08/14 10:00:03;;;;;;;4.28;1.95;;;;;;;;;;5022946;28;20042;-69
2023/08/14 10:02:32;;;;;;;3.67;2.17;;;;;;;;;;5011602;28;20507;-68
2023/08/14 10:04:58;;;;;;;4.88;1.95;;;;;;;;;;5011708;28;20420;-69
2023/08/14 10:07:25;;;;;;;4.38;2.03;;;;;;;;;;5028571;28;20049;-69
2023/08/14 10:09:54;;;;;;;4.85;2.10;;;;;;;;;;5012072;28;20052;-69
2023/08/14 10:12:32;;;;;;;4.10;2.20;;;;;;;;;;5032206;28;20048;-69
2023/08/14 10:15:11;;;;;;;5.53;2.03;;;;;;;;;;5024983;28;20048;-69
2023/08/14 10:17:44;;;;;;;4.15;2.10;;;;;;;;;;5014358;28;20132;-69
2023/08/14 10:20:11;;;;;;;3.90;2.28;;;;;;;;;;5028780;28;20504;-69
2023/08/14 10:22:39;;;;;;;4.57;2.42;;;;;;;;;;5014265;28;20161;-71
2023/08/14 10:25:05;;;;;;;4.80;2.47;;;;;;;;;;5030821;28;20045;-68
2023/08/14 10:27:32;;;;;;;5.18;2.60;;;;;;;;;;5003478;28;20061;-69
2023/08/14 10:29:58;;;;;;;5.88;2.30;;;;;;;;;;4994948;28;20358;-69
2023/08/14 10:32:24;;;;;;;4.38;2.40;;;;;;;;;;5014895;28;20044;-69
2023/08/14 10:34:51;;;;;;;4.90;2.38;;;;;;;;;;5013613;28;20052;-70
2023/08/14 10:37:29;;;;;;;6.20;2.30;;;;;;;;;;5031621;28;20059;-69
2023/08/14 10:40:13;;;;;;;2.97;2.03;;;;;;;;;;5030434;28;20040;-69
2023/08/14 10:42:46;;;;;;;2.92;1.90;;;;;;;;;;5013569;28;20098;-69
2023/08/14 10:45:16;;;;;;;3.15;2.00;;;;;;;;;;5028700;28;20437;-69
2023/08/14 10:47:43;;;;;;;4.47;2.30;;;;;;;;;;5013468;28;20041;-70
2023/08/14 10:50:13;;;;;;;4.05;2.10;;;;;;;;;;5030155;28;20110;-69
2023/08/14 10:52:39;;;;;;;4.32;2.05;;;;;;;;;;5012187;28;20430;-70
2023/08/14 10:55:15;;;;;;;3.72;2.40;;;;;;;;;;5030462;28;20484;-70
2023/08/14 10:57:41;;;;;;;6.82;2.20;;;;;;;;;;5013270;28;20396;-70
2023/08/14 11:00:19;;;;;;;3.70;2.25;;;;;;;;;;5004176;28;20109;-70
2023/08/14 11:02:50;;;;;;;5.15;2.60;;;;;;;;;;5011282;28;20058;-71
2023/08/14 11:05:19;;;;;;;4.60;2.55;;;;;;;;;;5026912;28;20060;-70
2023/08/14 11:08:11;;;;;;;4.70;2.40;;;;;;;;;;5028990;28;20097;-70
2023/08/14 11:10:37;;;;;;;4.63;2.60;;;;;;;;;;5028343;28;20085;-70
2023/08/14 11:13:06;;;;;;;7.47;2.50;;;;;;;;;;5029402;28;20443;-70
2023/08/14 11:15:33;;;;;;;2.83;2.30;;;;;;;;;;5030535;28;20053;-70
2023/08/14 11:17:59;;;;;;;5.30;2.38;;;;;;;;;;5012777;28;20045;-70
2023/08/14 11:20:29;;;;;;;4.65;2.45;;;;;;;;;;5015284;28;20098;-70
2023/08/14 11:22:55;;;;;;;5.65;2.50;;;;;;;;;;5029227;28;20042;-70
2023/08/14 11:25:21;;;;;;;4.72;2.75;;;;;;;;;;5031311;28;20045;-70
2023/08/14 11:27:49;;;;;;;4.45;2.70;;;;;;;;;;5029712;28;20072;-71
2023/08/14 11:30:15;;;;;;;5.90;2.60;;;;;;;;;;5012415;28;20499;-70
2023/08/14 11:32:41;;;;;;;5.15;2.50;;;;;;;;;;5029704;28;20124;-69
2023/08/14 11:35:08;;;;;;;4.03;2.60;;;;;;;;;;5029001;28;20412;-69
2023/08/14 11:37:34;;;;;;;4.05;2.47;;;;;;;;;;5028740;28;20037;-69
2023/08/14 11:40:07;;;;;;;2.90;2.10;;;;;;;;;;5031054;28;20049;-69
2023/08/14 11:42:32;;;;;;;;;;;;;;;;;;5030240;28;20050;-69
2023/08/14 11:45:04;;;;;;;4.57;2.42;;;;;;;;;;5018831;28;19921;-69
2023/08/14 11:47:31;;;;;;;4.32;2.17;;;;;;;;;;5011097;28;20082;-69
2023/08/14 11:49:57;;;;;;;3.53;2.22;;;;;;;;;;4992621;28;20061;-69
2023/08/14 11:52:25;;;;;;;4.40;2.58;;;;;;;;;;5015381;28;20050;-69
2023/08/14 11:54:51;;;;;;;2.80;2.15;;;;;;;;;;5011487;28;20091;-69
2023/08/14 11:57:17;;;;;;;4.40;2.35;;;;;;;;;;5012748;28;20057;-69
2023/08/14 11:59:44;;;;;;;3.17;2.03;;;;;;;;;;5030425;28;20071;-69
2023/08/14 12:02:10;;;;;;;3.40;2.20;;;;;;;;;;5029893;28;20049;-69
2023/08/14 12:04:40;;;;;;;3.65;2.30;;;;;;;;;;5011170;28;20541;-70
2023/08/14 12:07:09;;;;;;;4.70;2.20;;;;;;;;;;5029316;28;20054;-69
2023/08/14 12:09:38;;;;;;;3.60;2.38;;;;;;;;;;5011981;28;20049;-69
2023/08/14 12:12:05;;;;;;;5.38;2.45;;;;;;;;;;5014321;28;20041;-69
2023/08/14 12:14:38;;;;;;;3.40;2.25;;;;;;;;;;4993108;28;20205;-69
2023/08/14 12:17:11;;;;;;;5.40;2.60;;;;;;;;;;5010518;28;20490;-69
2023/08/14 12:19:38;;;;;;;8.15;4.07;;;;;;;;;;5008962;28;20122;-69
2023/08/14 12:22:04;;;;;;;7.70;4.32;;;;;;;;;;5029938;28;20600;-69
2023/08/14 12:24:38;;;;;;;3.65;2.47;;;;;;;;;;5028889;28;20077;-69
2023/08/14 12:27:04;;;;;;;6.03;2.42;;;;;;;;;;5002964;28;20073;-69
2023/08/14 12:29:30;;;;;;;5.15;2.35;;;;;;;;;;5010646;28;20094;-69
2023/08/14 12:31:59;;;;;;;4.10;2.78;;;;;;;;;;5008731;28;20095;-69
2023/08/14 12:34:25;;;;;;;4.20;3.08;;;;;;;;;;5029188;28;20124;-69
2023/08/14 12:36:51;;;;;;;5.88;3.05;;;;;;;;;;5029944;28;20045;-69
2023/08/14 12:39:17;;;;;;;5.38;3.20;;;;;;;;;;5027775;28;20154;-69
2023/08/14 12:41:43;;;;;;;10.38;3.13;;;;;;;;;;5026624;28;20447;-69
2023/08/14 12:44:09;;;;;;;8.10;3.00;;;;;;;;;;5029072;28;20046;-69
2023/08/14 12:46:35;;;;;;;7.30;3.05;;;;;;;;;;5029300;28;20448;-69
2023/08/14 12:49:01;;;;;;;4.60;3.33;;;;;;;;;;5008045;28;20117;-69
2023/08/14 12:51:27;;;;;;;6.78;3.15;;;;;;;;;;5027763;28;20496;-70
2023/08/14 12:53:53;;;;;;;6.65;3.47;;;;;;;;;;5029881;28;20098;-69
2023/08/14 12:56:19;;;;;;;7.28;2.95;;;;;;;;;;5018844;28;20183;-69
2023/08/14 12:58:45;;;;;;;5.88;2.75;;;;;;;;;;5008687;28;20046;-70
2023/08/14 13:01:11;;;;;;;3.90;3.00;;;;;;;;;;5009924;28;20053;-69
2023/08/14 13:03:37;;;;;;;7.43;3.30;;;;;;;;;;5009646;28;20042;-70
2023/08/14 13:06:05;;;;;;;6.38;3.63;;;;;;;;;;5018160;28;20049;-69
2023/08/14 13:08:31;;;;;;;7.50;3.67;;;;;;;;;;5011581;28;20057;-69
2023/08/14 13:10:57;;;;;;;7.07;3.20;;;;;;;;;;5006791;28;20386;-69
2023/08/14 13:13:26;;;;;;;8.77;3.30;;;;;;;;;;5009020;28;20050;-69
2023/08/14 13:15:52;;;;;;;7.18;3.10;;;;;;;;;;5009376;28;20168;-69
2023/08/14 13:18:18;;;;;;;7.78;3.10;;;;;;;;;;5008374;28;20128;-69
2023/08/14 13:20:44;;;;;;;6.25;3.42;;;;;;;;;;5028420;28;20045;-69
2023/08/14 13:23:10;;;;;;;5.30;3.08;;;;;;;;;;5029363;28;20091;-69
2023/08/14 13:25:36;;;;;;;5.65;3.30;;;;;;;;;;5028314;28;20052;-70
2023/08/14 13:28:03;;;;;;;7.13;3.22;;;;;;;;;;5027505;28;20495;-69
2023/08/14 13:30:29;;;;;;;6.60;3.45;;;;;;;;;;5010851;28;20046;-69
2023/08/14 13:32:55;;;;;;;8.05;3.25;;;;;;;;;;5028400;28;20416;-70
2023/08/14 13:35:22;;;;;;;5.65;3.30;;;;;;;;;;5010683;28;20183;-70
2023/08/14 13:37:48;;;;;;;4.43;3.17;;;;;;;;;;5020043;28;20058;-69
2023/08/14 13:40:14;;;;;;;6.50;3.30;;;;;;;;;;4991172;28;20038;-69
2023/08/14 13:42:40;;;;;;;7.53;3.30;;;;;;;;;;5009283;28;20045;-69
2023/08/14 13:45:06;;;;;;;5.07;3.25;;;;;;;;;;4990208;28;20049;-69
2023/08/14 13:47:32;;;;;;;7.75;3.25;;;;;;;;;;4995077;28;20045;-69
2023/08/14 13:49:58;;;;;;;6.28;3.25;;;;;;;;;;5011145;28;20125;-69
2023/08/14 13:52:24;;;;;;;7.50;3.60;;;;;;;;;;5029077;28;20472;-69
2023/08/14 13:54:50;;;;;;;10.77;3.50;;;;;;;;;;5027223;28;20048;-71
2023/08/14 13:57:16;;;;;;;8.50;3.40;;;;;;;;;;5011249;28;20088;-71
2023/08/14 13:59:42;;;;;;;6.40;3.15;;;;;;;;;;5028475;28;20042;-70
2023/08/14 14:02:09;;;;;;;4.63;2.80;;;;;;;;;;5009341;28;20154;-69
2023/08/14 14:04:35;;;;;;;7.85;3.63;;;;;;;;;;5024685;28;20173;-70
2023/08/14 14:07:01;;;;;;;8.30;3.35;;;;;;;;;;5028182;28;20449;-69
2023/08/14 14:09:27;;;;;;;7.10;3.38;;;;;;;;;;5027965;28;20561;-70
2023/08/14 14:11:53;;;;;;;9.00;3.40;;;;;;;;;;5028453;28;20053;-69
2023/08/14 14:14:19;;;;;;;6.88;3.90;;;;;;;;;;5010093;28;20045;-70
2023/08/14 14:16:53;;;;;;;7.07;3.30;;;;;;;;;;5010593;28;20045;-70
2023/08/14 14:19:19;;;;;;;6.03;3.30;;;;;;;;;;5014155;28;20045;-70
2023/08/14 14:21:45;;;;;;;4.88;3.10;;;;;;;;;;5028223;28;20046;-70
2023/08/14 14:24:11;;;;;;;6.70;3.00;;;;;;;;;;5028080;28;20124;-69
2023/08/14 14:26:37;;;;;;;6.15;3.30;;;;;;;;;;5026495;28;20149;-70
2023/08/14 14:29:03;;;;;;;7.47;3.35;;;;;;;;;;5028236;28;20041;-70
2023/08/14 14:31:29;;;;;;;4.13;3.05;;;;;;;;;;5028262;28;20120;-70
2023/08/14 14:33:55;;;;;;;5.65;3.00;;;;;;;;;;5021021;28;20125;-71
2023/08/14 14:36:21;;;;;;;7.72;3.10;;;;;;;;;;5013867;28;20457;-70
2023/08/14 14:38:47;;;;;;;7.28;3.40;;;;;;;;;;5005875;28;20058;-70
2023/08/14 14:41:13;;;;;;;6.32;2.90;;;;;;;;;;5008858;28;20050;-70